createdAt,value
2023-01-11T10:38:22.982Z,0.70
2023-01-11T10:41:12.320Z,0.85
2023-01-11T10:43:45.143Z,0.70
2023-01-11T10:46:17.519Z,0.80
2023-01-11T10:48:47.844Z,0.75
2023-01-11T10:51:27.489Z,1.10
2023-01-11T10:54:15.606Z,0.70
2023-01-11T10:57:02.518Z,1.10
2023-01-11T11:00:00.028Z,0.88
2023-01-11T11:03:22.637Z,0.60
2023-01-11T11:05:58.384Z,0.80
2023-01-11T11:08:32.060Z,0.80
2023-01-11T11:11:02.873Z,0.70
2023-01-11T11:13:47.652Z,0.80
2023-01-11T11:16:55.117Z,0.50
2023-01-11T11:19:42.704Z,0.70
2023-01-11T11:22:12.360Z,0.63
2023-01-11T11:24:45.289Z,0.70
2023-01-11T11:27:22.612Z,0.60
2023-01-11T11:29:54.117Z,0.50
2023-01-11T11:32:27.767Z,0.50
2023-01-11T11:34:56.234Z,0.70
2023-01-11T11:37:27.679Z,0.50
2023-01-11T11:39:56.725Z,0.70
2023-01-11T11:42:25.355Z,0.65
2023-01-11T11:45:18.379Z,0.82
2023-01-11T11:48:03.001Z,0.95
2023-01-11T11:50:44.272Z,0.60
2023-01-11T11:53:38.438Z,0.60
2023-01-11T11:56:18.603Z,0.60
2023-01-11T11:58:47.860Z,0.70
2023-01-11T12:01:27.565Z,0.70
2023-01-11T12:03:58.657Z,0.50
2023-01-11T12:06:29.591Z,0.60
2023-01-11T12:09:26.787Z,0.52
2023-01-11T12:11:56.051Z,0.68
2023-01-11T12:14:28.198Z,0.70
2023-01-11T12:16:59.444Z,0.70
2023-01-11T12:19:35.945Z,1.30
2023-01-11T12:22:18.954Z,0.60
2023-01-11T12:25:22.735Z,0.98
2023-01-11T12:28:00.767Z,0.75
2023-01-11T12:31:12.058Z,1.10
2023-01-11T12:33:50.894Z,0.80
2023-01-11T12:36:30.636Z,0.68
2023-01-11T12:39:09.254Z,0.98
2023-01-11T17:24:27.040Z,2.80
2023-01-11T17:27:03.180Z,2.28
2023-01-11T17:29:38.243Z,2.38
2023-01-11T17:32:19.311Z,2.30
2023-01-11T17:34:52.923Z,2.13
2023-01-11T17:37:27.952Z,2.35
